Time;durP1;ratioP1;P1;durP2;ratioP2;P2;SDS_P1;SDS_P2;PMS_P1;PMS_P2;Temp;Humidity;BMP_temperature;BMP_pressure;BME280_temperature;BME280_humidity;BME280_pressure;Samples;Min_cycle;Max_cycle;Signal;HPM_P1;HPM_P2
2021/01/16 00:00:23;;;;;;;1.77;1.67;;;-0.60;99.90;;;;;;5009179;28;20603;-76
2021/01/16 00:02:49;;;;;;;1.50;1.40;;;-0.50;99.90;;;;;;5008947;28;20212;-74
2021/01/16 00:05:18;;;;;;;1.50;1.40;;;-0.50;99.90;;;;;;5009216;28;20304;-76
2021/01/16 00:07:45;;;;;;;1.60;1.50;;;-0.50;99.90;;;;;;5008967;28;20215;-73
2021/01/16 00:10:14;;;;;;;1.70;1.60;;;-0.50;99.90;;;;;;5008251;28;20204;-73
2021/01/16 00:12:41;;;;;;;1.53;1.43;;;-0.50;99.90;;;;;;5008300;28;20224;-73
2021/01/16 00:15:09;;;;;;;1.50;1.40;;;-0.50;99.90;;;;;;5008824;28;20278;-73
2021/01/16 00:17:35;;;;;;;1.70;1.60;;;-0.50;99.90;;;;;;5008617;28;20213;-73
2021/01/16 00:20:02;;;;;;;1.73;1.63;;;-0.50;99.90;;;;;;5008801;28;20216;-73
2021/01/16 00:22:28;;;;;;;1.97;1.87;;;-0.50;99.90;;;;;;5008547;28;20325;-73
2021/01/16 00:24:58;;;;;;;1.80;1.70;;;-0.50;99.90;;;;;;5008360;28;20207;-73
2021/01/16 00:27:25;;;;;;;1.73;1.63;;;-0.60;99.90;;;;;;5007624;28;20212;-73
2021/01/16 00:29:53;;;;;;;1.83;1.73;;;-0.70;99.90;;;;;;5008508;28;20252;-73
2021/01/16 00:32:19;;;;;;;1.63;1.53;;;-0.70;99.90;;;;;;5007931;28;20266;-73
2021/01/16 00:34:46;;;;;;;1.60;1.43;;;-0.70;99.90;;;;;;5008549;28;20296;-74
2021/01/16 00:37:12;;;;;;;1.90;1.80;;;-0.70;99.90;;;;;;5008202;28;20213;-74
2021/01/16 00:39:38;;;;;;;1.83;1.60;;;-0.70;99.90;;;;;;5008265;28;20205;-74
2021/01/16 00:42:06;;;;;;;1.60;1.50;;;-0.70;99.90;;;;;;5008246;28;20235;-74
2021/01/16 00:44:32;;;;;;;2.10;1.80;;;-0.70;99.90;;;;;;5007909;28;20236;-74
2021/01/16 00:47:00;;;;;;;3.03;2.07;;;-0.70;99.90;;;;;;5008516;28;20570;-74
2021/01/16 00:49:26;;;;;;;2.13;1.93;;;-0.70;99.90;;;;;;5008418;28;20296;-75
2021/01/16 00:51:52;;;;;;;2.40;1.90;;;-0.70;99.90;;;;;;5008369;28;20262;-75
2021/01/16 00:54:19;;;;;;;1.83;1.73;;;-0.70;99.90;;;;;;5008370;28;20218;-75
2021/01/16 00:56:45;;;;;;;1.70;1.60;;;-0.80;99.90;;;;;;5008445;28;20255;-76
2021/01/16 00:59:11;;;;;;;1.90;1.80;;;-0.80;99.90;;;;;;5007022;28;20212;-75
2021/01/16 01:01:39;;;;;;;1.90;1.80;;;-0.80;99.90;;;;;;4988301;28;20234;-76
2021/01/16 01:04:08;;;;;;;2.20;1.90;;;-0.90;99.90;;;;;;4988344;28;20303;-75
2021/01/16 01:06:34;;;;;;;1.90;1.80;;;-0.80;99.90;;;;;;4988412;28;20708;-76
2021/01/16 01:09:01;;;;;;;2.00;1.90;;;-0.80;99.90;;;;;;4988803;28;20256;-75
2021/01/16 01:11:27;;;;;;;2.20;1.97;;;-0.70;99.90;;;;;;4988621;28;20309;-76
2021/01/16 01:13:53;;;;;;;3.27;1.80;;;-0.70;99.90;;;;;;4988416;28;20295;-75
2021/01/16 01:16:20;;;;;;;1.80;1.70;;;-0.60;99.90;;;;;;4988422;28;20308;-76
2021/01/16 01:18:46;;;;;;;2.03;1.80;;;-0.60;99.90;;;;;;4988668;28;20305;-75
2021/01/16 01:21:14;;;;;;;1.63;1.53;;;-0.60;99.90;;;;;;4988477;28;20903;-76
2021/01/16 01:23:40;;;;;;;1.93;1.83;;;-0.50;99.90;;;;;;4988587;28;20216;-76
2021/01/16 01:26:06;;;;;;;1.80;1.70;;;-0.50;99.90;;;;;;4988127;28;20304;-73
2021/01/16 01:28:33;;;;;;;1.80;1.70;;;-0.50;99.90;;;;;;4988518;28;20573;-74
2021/01/16 01:30:59;;;;;;;2.03;1.80;;;-0.50;99.90;;;;;;4988402;28;20619;-74
2021/01/16 01:33:25;;;;;;;1.90;1.80;;;-0.50;99.90;;;;;;4988180;28;20209;-73
2021/01/16 01:35:52;;;;;;;2.27;2.07;;;-0.60;99.90;;;;;;4988116;28;20297;-74
2021/01/16 01:38:19;;;;;;;2.07;1.97;;;-0.60;99.90;;;;;;4988267;28;20657;-74
2021/01/16 01:40:46;;;;;;;2.40;2.20;;;-0.80;99.90;;;;;;4988609;28;20324;-74
2021/01/16 01:43:12;;;;;;;1.80;1.70;;;-0.90;99.90;;;;;;4987960;28;20781;-74
2021/01/16 01:45:39;;;;;;;2.17;2.07;;;-0.90;99.90;;;;;;4992024;28;20295;-74
2021/01/16 01:48:06;;;;;;;2.07;1.97;;;-1.00;99.90;;;;;;4991785;28;20248;-74
2021/01/16 01:50:33;;;;;;;2.27;1.90;;;-1.00;99.90;;;;;;4992044;28;20215;-74
2021/01/16 01:53:01;;;;;;;2.77;2.27;;;-1.00;99.90;;;;;;4992064;28;20231;-75
2021/01/16 01:55:29;;;;;;;2.03;1.93;;;-1.00;99.90;;;;;;4992027;28;20299;-75
2021/01/16 01:57:57;;;;;;;2.53;2.33;;;-1.00;99.90;;;;;;4992143;28;20570;-75
2021/01/16 02:00:24;;;;;;;2.50;2.30;;;-1.00;99.90;;;;;;4991916;28;20209;-75
2021/01/16 02:02:53;;;;;;;2.13;2.03;;;-1.00;99.90;;;;;;4991946;28;20261;-75
2021/01/16 02:05:19;;;;;;;1.93;1.83;;;-1.00;99.90;;;;;;4992011;28;20670;-75
2021/01/16 02:07:46;;;;;;;2.00;1.90;;;-0.90;99.90;;;;;;4992253;28;20796;-76
2021/01/16 02:10:19;;;;;;;2.40;2.23;;;-0.90;99.90;;;;;;4991713;28;20220;-76
2021/01/16 02:12:47;;;;;;;2.40;2.20;;;-0.90;99.90;;;;;;4991826;28;20222;-76
2021/01/16 02:15:28;;;;;;;3.87;1.93;;;-1.00;99.90;;;;;;5005651;28;20247;-76
2021/01/16 02:17:56;;;;;;;2.43;2.23;;;-1.10;99.90;;;;;;5011391;28;20667;-75
2021/01/16 02:20:27;;;;;;;2.60;2.40;;;-1.10;99.90;;;;;;5011411;28;20350;-76
2021/01/16 02:23:19;;;;;;;2.40;2.20;;;-1.10;99.90;;;;;;5010890;28;20250;-75
2021/01/16 02:26:17;;;;;;;2.20;2.10;;;-1.10;99.90;;;;;;5011400;28;20195;-75
2021/01/16 02:28:50;;;;;;;2.30;2.17;;;-1.10;99.90;;;;;;5011285;28;20212;-75
2021/01/16 02:31:17;;;;;;;2.97;2.50;;;-1.10;99.90;;;;;;5010958;28;20256;-75
2021/01/16 02:33:45;;;;;;;2.27;2.07;;;-1.10;99.90;;;;;;5010811;28;20214;-75
2021/01/16 02:36:19;;;;;;;4.00;2.30;;;-1.20;99.90;;;;;;5011165;28;20744;-75
2021/01/16 02:38:56;;;;;;;3.07;2.77;;;-1.20;99.90;;;;;;5010986;28;20199;-75
2021/01/16 02:41:32;;;;;;;2.97;1.83;;;-1.20;99.90;;;;;;5011077;28;20213;-75
2021/01/16 02:44:12;;;;;;;2.47;2.27;;;-1.20;99.90;;;;;;5010292;28;20239;-75
2021/01/16 02:46:46;;;;;;;3.03;2.60;;;-1.20;99.90;;;;;;5011036;28;20268;-76
2021/01/16 02:49:27;;;;;;;2.90;2.20;;;-1.30;99.90;;;;;;5010860;28;20831;-75
2021/01/16 02:52:03;;;;;;;3.67;3.00;;;-1.30;99.90;;;;;;5010724;28;20269;-75
2021/01/16 02:54:32;;;;;;;2.10;2.00;;;-1.30;99.90;;;;;;5010731;28;20209;-76
2021/01/16 02:56:58;;;;;;;2.80;2.60;;;-1.30;99.90;;;;;;5010077;28;20304;-76
2021/01/16 02:59:25;;;;;;;3.10;2.83;;;-1.30;99.90;;;;;;5010305;28;20294;-76
2021/01/16 03:01:54;;;;;;;3.37;3.07;;;-1.30;99.90;;;;;;5010790;28;20631;-75
2021/01/16 03:04:21;;;;;;;2.87;2.63;;;-1.30;99.90;;;;;;5010388;28;20266;-76
2021/01/16 03:06:51;;;;;;;3.60;2.90;;;-1.20;99.90;;;;;;5010543;28;20218;-76
2021/01/16 03:09:18;;;;;;;3.87;3.23;;;-1.20;99.90;;;;;;5010679;28;20304;-75
2021/01/16 03:11:46;;;;;;;3.07;2.60;;;-1.20;99.90;;;;;;5010106;28;20234;-75
2021/01/16 03:14:13;;;;;;;4.03;3.07;;;-1.20;99.90;;;;;;5010043;28;20413;-75
2021/01/16 03:17:04;;;;;;;2.77;2.57;;;-1.20;99.90;;;;;;5010205;28;20272;-76
2021/01/16 03:19:32;;;;;;;2.53;2.33;;;-1.20;99.90;;;;;;5009805;28;20259;-75
2021/01/16 03:21:58;;;;;;;3.13;2.40;;;-1.20;99.90;;;;;;5010015;28;20207;-75
2021/01/16 03:24:25;;;;;;;2.70;2.50;;;-1.20;99.90;;;;;;5009525;28;20213;-75
2021/01/16 03:26:51;;;;;;;2.73;2.53;;;-1.10;99.90;;;;;;5009579;28;20208;-75
2021/01/16 03:29:18;;;;;;;2.00;1.90;;;-1.20;99.90;;;;;;5009866;28;20207;-75
2021/01/16 03:31:44;;;;;;;2.47;2.10;;;-1.20;99.90;;;;;;5009622;28;20572;-75
2021/01/16 03:34:11;;;;;;;2.57;2.37;;;-1.20;99.90;;;;;;5009852;28;20252;-76
2021/01/16 03:36:38;;;;;;;4.37;2.47;;;-1.20;99.90;;;;;;5009953;28;20254;-75
2021/01/16 03:39:05;;;;;;;2.40;2.27;;;-1.10;99.90;;;;;;5009535;28;20214;-75
2021/01/16 03:41:31;;;;;;;2.70;2.50;;;-1.20;99.90;;;;;;5009862;28;20213;-74
2021/01/16 03:43:57;;;;;;;2.63;2.43;;;-1.20;99.90;;;;;;5009717;28;20320;-75
2021/01/16 03:46:24;;;;;;;4.20;2.53;;;-1.10;99.90;;;;;;5009527;28;20222;-75
2021/01/16 03:48:50;;;;;;;2.67;2.47;;;-1.10;99.90;;;;;;5009873;28;20208;-74
2021/01/16 03:51:17;;;;;;;4.80;2.47;;;-1.10;99.90;;;;;;5009065;28;20701;-75
2021/01/16 03:53:44;;;;;;;2.73;2.53;;;-1.20;99.90;;;;;;5009548;28;20213;-75
2021/01/16 03:56:10;;;;;;;2.40;2.20;;;-1.20;99.90;;;;;;5009569;28;20207;-75
2021/01/16 03:58:36;;;;;;;2.40;2.30;;;-1.20;99.90;;;;;;5009717;28;20302;-75
2021/01/16 04:01:03;;;;;;;2.43;2.23;;;-1.30;99.90;;;;;;5009387;28;20301;-75
2021/01/16 04:03:29;;;;;;;3.17;2.63;;;-1.20;99.90;;;;;;5009438;28;20240;-74
2021/01/16 04:05:55;;;;;;;2.50;2.13;;;-1.20;99.90;;;;;;5009494;28;20216;-75
2021/01/16 04:08:23;;;;;;;2.77;2.27;;;-1.20;99.90;;;;;;5009383;28;20212;-75
2021/01/16 04:10:49;;;;;;;2.60;2.30;;;-1.20;99.90;;;;;;5008878;28;20764;-74
2021/01/16 04:13:15;;;;;;;3.07;2.40;;;-1.10;99.90;;;;;;5009304;28;20577;-75
2021/01/16 04:15:42;;;;;;;2.27;2.17;;;-1.10;99.90;;;;;;5009387;28;20214;-75
2021/01/16 04:18:08;;;;;;;2.60;2.10;;;-1.10;99.90;;;;;;5009222;28;20220;-75
2021/01/16 04:20:35;;;;;;;3.00;2.40;;;-1.10;99.90;;;;;;5008868;28;20203;-75
2021/01/16 04:23:01;;;;;;;2.63;2.43;;;-1.10;99.90;;;;;;5009148;28;20872;-75
2021/01/16 04:25:28;;;;;;;2.80;2.60;;;-1.10;99.90;;;;;;5009162;28;20206;-75
2021/01/16 04:27:54;;;;;;;2.30;2.20;;;-1.10;99.90;;;;;;5008995;28;20208;-75
2021/01/16 04:30:21;;;;;;;2.63;2.43;;;-1.10;99.90;;;;;;5008828;28;21167;-75
2021/01/16 04:32:51;;;;;;;2.93;2.73;;;-1.10;99.90;;;;;;5008807;28;20237;-75
2021/01/16 04:35:18;;;;;;;3.47;2.60;;;-1.20;99.90;;;;;;5008453;28;20298;-75
2021/01/16 04:37:45;;;;;;;2.77;2.57;;;-1.20;99.90;;;;;;5008742;28;20682;-76
2021/01/16 04:40:12;;;;;;;2.73;2.53;;;-1.20;99.90;;;;;;5008650;28;20573;-76
2021/01/16 04:42:43;;;;;;;2.60;2.40;;;-1.10;99.90;;;;;;5008817;28;20256;-76
2021/01/16 04:45:13;;;;;;;2.40;2.30;;;-1.10;99.90;;;;;;5008497;28;20235;-74
2021/01/16 04:47:42;;;;;;;3.33;2.97;;;-1.10;99.90;;;;;;5009004;28;20210;-75
2021/01/16 04:50:11;;;;;;;2.97;2.70;;;-1.10;99.90;;;;;;5008720;28;20298;-75
2021/01/16 04:52:38;;;;;;;3.17;2.90;;;-1.20;99.90;;;;;;5008356;28;20806;-75
2021/01/16 04:55:09;;;;;;;3.00;2.80;;;-1.20;99.90;;;;;;5008269;28;21002;-75
2021/01/16 04:57:37;;;;;;;2.60;2.40;;;-1.20;99.90;;;;;;5008598;28;20285;-75
2021/01/16 05:00:07;;;;;;;3.63;2.90;;;-1.10;99.90;;;;;;5008520;28;20230;-76
2021/01/16 05:02:38;;;;;;;2.60;2.40;;;-1.10;99.90;;;;;;5008730;28;20741;-76
2021/01/16 05:05:08;;;;;;;3.07;2.77;;;-1.20;99.90;;;;;;5008227;28;20197;-76
2021/01/16 05:07:34;;;;;;;2.80;2.60;;;-1.10;99.90;;;;;;5008599;28;20219;-76
2021/01/16 05:10:01;;;;;;;3.00;2.80;;;-1.10;99.90;;;;;;5008645;28;20714;-76
2021/01/16 05:12:47;;;;;;;3.10;2.57;;;-1.10;99.90;;;;;;5008592;28;20235;-76
2021/01/16 05:15:22;;;;;;;2.90;2.70;;;-1.10;99.90;;;;;;5008286;28;20197;-76
2021/01/16 05:17:55;;;;;;;3.23;2.87;;;-1.10;99.90;;;;;;5008363;28;20200;-76
2021/01/16 05:20:22;;;;;;;3.13;2.90;;;-1.10;99.90;;;;;;5014245;28;20208;-76
2021/01/16 05:22:48;;;;;;;2.93;2.73;;;-1.10;99.90;;;;;;5014590;28;20214;-76
2021/01/16 05:25:15;;;;;;;3.50;3.20;;;-1.10;99.90;;;;;;5014535;28;20210;-76
2021/01/16 05:27:52;;;;;;;4.00;3.30;;;-1.10;99.90;;;;;;5014662;28;20370;-76
2021/01/16 05:30:21;;;;;;;4.37;3.07;;;-1.10;99.90;;;;;;5014270;28;20197;-76
2021/01/16 05:32:48;;;;;;;3.10;2.80;;;-1.10;99.90;;;;;;5014726;28;20240;-76
2021/01/16 05:35:15;;;;;;;3.53;3.23;;;-1.10;99.90;;;;;;5014755;28;20210;-76
2021/01/16 05:37:44;;;;;;;3.47;3.17;;;-1.10;99.90;;;;;;5014975;28;20696;-76
2021/01/16 05:40:11;;;;;;;5.27;3.30;;;-1.00;99.90;;;;;;5014749;28;20212;-76
2021/01/16 05:42:39;;;;;;;4.10;3.70;;;-1.10;99.90;;;;;;5014749;28;20204;-76
2021/01/16 05:45:08;;;;;;;3.80;3.50;;;-1.10;99.90;;;;;;5013928;28;20269;-76
2021/01/16 05:47:38;;;;;;;3.40;3.10;;;-1.10;99.90;;;;;;5014372;28;20560;-76
2021/01/16 05:50:06;;;;;;;3.60;3.30;;;-1.10;99.90;;;;;;5014502;28;20655;-75
2021/01/16 05:52:33;;;;;;;3.30;3.00;;;-1.10;99.90;;;;;;5014103;28;20325;-75
2021/01/16 05:55:00;;;;;;;3.90;3.50;;;-1.10;99.90;;;;;;5014207;28;20299;-75
2021/01/16 05:57:27;;;;;;;3.87;3.17;;;-1.10;99.90;;;;;;5013953;28;20210;-75
2021/01/16 05:59:58;;;;;;;3.60;3.30;;;-1.10;99.90;;;;;;5014116;28;20472;-75
2021/01/16 06:02:29;;;;;;;4.73;4.20;;;-1.10;99.90;;;;;;5014159;28;20258;-75
2021/01/16 06:04:56;;;;;;;3.67;3.37;;;-1.10;99.90;;;;;;5014350;28;20191;-75
2021/01/16 06:07:23;;;;;;;3.97;3.60;;;-1.10;99.90;;;;;;5014431;28;20215;-75
2021/01/16 06:09:51;;;;;;;3.83;3.50;;;-1.10;99.90;;;;;;5014451;28;20211;-75
2021/01/16 06:12:19;;;;;;;3.87;3.47;;;-1.00;99.90;;;;;;5014176;28;20270;-75
2021/01/16 06:14:46;;;;;;;3.60;3.30;;;-1.00;99.90;;;;;;5014299;28;20214;-75
2021/01/16 06:17:14;;;;;;;4.60;3.70;;;-1.00;99.90;;;;;;5014280;28;20228;-75
2021/01/16 06:19:45;;;;;;;4.30;3.63;;;-1.00;99.90;;;;;;5014186;28;20549;-74
2021/01/16 06:22:13;;;;;;;3.90;3.60;;;-1.00;99.90;;;;;;5013597;28;20202;-74
2021/01/16 06:24:44;;;;;;;3.83;3.43;;;-1.10;99.90;;;;;;5013950;28;20202;-75
2021/01/16 06:27:20;;;;;;;3.40;3.10;;;-1.00;99.90;;;;;;5014124;28;20197;-75
2021/01/16 06:29:57;;;;;;;3.80;3.50;;;-1.00;99.90;;;;;;5013412;28;20201;-75
2021/01/16 06:32:25;;;;;;;3.97;3.57;;;-1.10;99.90;;;;;;5010354;28;20245;-75
2021/01/16 06:35:06;;;;;;;3.60;3.30;;;-1.10;99.90;;;;;;5011184;28;20215;-75
2021/01/16 06:37:40;;;;;;;4.33;3.70;;;-1.10;99.90;;;;;;5011499;28;20279;-75
2021/01/16 06:40:08;;;;;;;3.97;3.60;;;-1.10;99.90;;;;;;5010702;28;20193;-75
2021/01/16 06:42:37;;;;;;;4.20;3.80;;;-1.10;99.90;;;;;;5010885;28;20231;-75
2021/01/16 06:45:06;;;;;;;3.87;3.47;;;-1.10;99.90;;;;;;5010560;28;20392;-75
2021/01/16 06:47:34;;;;;;;3.83;3.53;;;-1.10;99.90;;;;;;5010478;28;20255;-75
2021/01/16 06:50:01;;;;;;;3.87;3.57;;;-1.10;99.90;;;;;;5010714;28;20216;-76
2021/01/16 06:52:36;;;;;;;3.70;3.40;;;-1.10;99.90;;;;;;5007429;28;20736;-74
2021/01/16 06:55:05;;;;;;;3.80;3.50;;;-1.00;99.90;;;;;;5001040;28;20296;-74
2021/01/16 06:57:32;;;;;;;4.07;3.67;;;-1.10;99.90;;;;;;5002001;28;20201;-73
2021/01/16 07:00:05;;;;;;;4.40;4.03;;;-1.00;99.90;;;;;;4992803;28;20206;-74
2021/01/16 07:02:33;;;;;;;4.20;3.80;;;-1.10;99.90;;;;;;4993492;28;20285;-74
2021/01/16 07:05:01;;;;;;;4.53;4.00;;;-1.00;99.90;;;;;;5003348;28;20212;-77
2021/01/16 07:07:30;;;;;;;4.23;3.83;;;-1.00;99.90;;;;;;5005063;28;20201;-77
2021/01/16 07:09:59;;;;;;;3.97;3.67;;;-0.90;99.90;;;;;;4993932;28;20664;-77
2021/01/16 07:12:26;;;;;;;4.13;3.73;;;-0.90;99.90;;;;;;4995800;28;20242;-77
2021/01/16 07:14:52;;;;;;;4.27;3.97;;;-0.80;99.90;;;;;;4996596;28;20202;-78
2021/01/16 07:17:22;;;;;;;4.63;4.23;;;-0.80;99.90;;;;;;5001604;28;20200;-78
2021/01/16 07:19:48;;;;;;;4.07;3.67;;;-0.80;99.90;;;;;;5001542;28;20276;-78
2021/01/16 07:22:16;;;;;;;4.60;3.87;;;-0.90;99.90;;;;;;4996727;28;20204;-76
2021/01/16 07:24:44;;;;;;;4.73;4.30;;;-0.90;99.90;;;;;;5002124;28;20206;-76
2021/01/16 07:27:14;;;;;;;4.23;3.77;;;-1.00;99.90;;;;;;4999063;28;20237;-75
2021/01/16 07:29:41;;;;;;;4.97;4.47;;;-1.00;99.90;;;;;;4999966;28;20577;-75
2021/01/16 07:32:15;;;;;;;5.03;3.87;;;-0.90;99.90;;;;;;5000589;28;20313;-74
2021/01/16 07:34:50;;;;;;;5.53;4.70;;;-0.90;99.90;;;;;;4995505;28;20287;-80
2021/01/16 07:37:17;;;;;;;5.40;4.90;;;-0.90;99.90;;;;;;4995340;28;20750;-76
2021/01/16 07:39:44;;;;;;;5.63;4.80;;;-0.90;99.90;;;;;;4990421;28;20226;-76
2021/01/16 07:42:14;;;;;;;7.03;4.90;;;-1.00;99.90;;;;;;4989837;28;20248;-76
2021/01/16 07:44:45;;;;;;;5.27;4.77;;;-0.90;99.90;;;;;;4989960;28;20620;-76
2021/01/16 07:47:20;;;;;;;5.07;4.57;;;-0.90;99.90;;;;;;4992693;28;20579;-76
2021/01/16 07:49:57;;;;;;;5.50;4.70;;;-0.90;99.90;;;;;;5006434;28;20661;-76
2021/01/16 07:52:26;;;;;;;5.23;4.73;;;-1.00;99.90;;;;;;4993926;28;20246;-76
2021/01/16 07:55:06;;;;;;;5.10;4.60;;;-1.00;99.90;;;;;;4987105;28;20210;-76
2021/01/16 07:57:34;;;;;;;6.07;5.47;;;-1.00;99.90;;;;;;4993530;28;20297;-77
2021/01/16 08:00:08;;;;;;;7.37;6.77;;;-1.00;99.90;;;;;;4995385;28;20229;-76
2021/01/16 08:03:02;;;;;;;5.90;4.93;;;-0.90;99.90;;;;;;4999142;28;20201;-76
2021/01/16 08:05:46;;;;;;;5.20;4.70;;;-0.90;99.90;;;;;;4991994;28;20529;-76
2021/01/16 08:08:55;;;;;;;5.10;4.57;;;-1.00;99.90;;;;;;5000945;28;20196;-76
2021/01/16 08:11:27;;;;;;;6.70;5.87;;;-1.00;99.90;;;;;;4986269;28;20264;-77
2021/01/16 08:13:59;;;;;;;4.90;4.50;;;-1.00;99.90;;;;;;4989639;28;20198;-76
2021/01/16 08:16:26;;;;;;;4.50;4.10;;;-1.00;99.90;;;;;;4993563;28;20197;-76
2021/01/16 08:19:06;;;;;;;6.50;5.23;;;-1.00;99.90;;;;;;4986348;28;20622;-77
2021/01/16 08:21:34;;;;;;;6.53;5.93;;;-1.00;99.90;;;;;;4987191;28;20663;-77
2021/01/16 08:24:05;;;;;;;5.27;4.77;;;-1.00;99.90;;;;;;5000775;28;20210;-76
2021/01/16 08:26:31;;;;;;;6.23;5.07;;;-1.00;99.90;;;;;;4996756;28;20202;-76
2021/01/16 08:29:00;;;;;;;5.20;4.43;;;-1.10;99.90;;;;;;4991232;28;20230;-77
2021/01/16 08:31:27;;;;;;;5.93;5.33;;;-1.00;99.90;;;;;;4993820;28;20788;-76
2021/01/16 08:33:54;;;;;;;5.20;4.70;;;-1.10;99.90;;;;;;5001574;28;20215;-76
2021/01/16 08:36:25;;;;;;;5.27;4.77;;;-1.00;99.90;;;;;;5005608;28;20210;-77
2021/01/16 08:38:51;;;;;;;5.23;4.43;;;-1.00;99.90;;;;;;4993125;28;20282;-77
2021/01/16 08:41:23;;;;;;;5.47;4.97;;;-1.00;99.90;;;;;;4986018;28;20214;-76
2021/01/16 08:43:55;;;;;;;4.60;4.20;;;-1.00;99.90;;;;;;4989663;28;20239;-76
2021/01/16 08:46:30;;;;;;;4.73;4.33;;;-1.00;99.90;;;;;;5008334;28;20300;-76
2021/01/16 08:48:58;;;;;;;6.20;5.23;;;-0.90;99.90;;;;;;5006921;28;20260;-76
2021/01/16 08:51:30;;;;;;;5.33;4.60;;;-0.90;99.90;;;;;;4991043;28;20300;-76
2021/01/16 08:54:06;;;;;;;4.93;4.53;;;-1.00;99.90;;;;;;4988321;28;20297;-76
2021/01/16 08:56:33;;;;;;;4.93;4.43;;;-1.00;99.90;;;;;;4988633;28;20202;-75
2021/01/16 08:59:21;;;;;;;5.87;5.27;;;-1.00;99.90;;;;;;4988958;28;20620;-76
2021/01/16 09:01:51;;;;;;;4.67;4.27;;;-0.90;99.90;;;;;;4997244;28;20973;-75
2021/01/16 09:04:19;;;;;;;5.13;4.63;;;-0.90;99.90;;;;;;5006650;28;20242;-75
2021/01/16 09:06:46;;;;;;;5.87;4.57;;;-0.90;99.90;;;;;;5008199;28;20205;-75
2021/01/16 09:09:14;;;;;;;5.40;4.73;;;-0.80;99.90;;;;;;5008037;28;20207;-75
2021/01/16 09:11:42;;;;;;;5.10;4.63;;;-0.80;99.90;;;;;;5007871;28;20232;-76
2021/01/16 09:14:08;;;;;;;4.97;4.40;;;-0.70;99.90;;;;;;5008438;28;20211;-76
2021/01/16 09:16:37;;;;;;;5.77;4.43;;;-0.60;99.90;;;;;;5007939;28;20223;-75
2021/01/16 09:19:04;;;;;;;6.27;4.93;;;-0.60;99.90;;;;;;5007732;28;20681;-76
2021/01/16 09:21:31;;;;;;;5.30;4.80;;;-0.60;99.90;;;;;;5007916;28;20212;-76
2021/01/16 09:23:57;;;;;;;7.00;4.67;;;-0.70;99.90;;;;;;5007857;28;20707;-76
2021/01/16 09:26:27;;;;;;;5.50;4.90;;;-0.70;99.90;;;;;;5007069;28;20220;-76
2021/01/16 09:28:54;;;;;;;4.83;4.20;;;-0.70;99.90;;;;;;5008309;28;20284;-76
2021/01/16 09:31:24;;;;;;;5.23;4.73;;;-0.80;99.90;;;;;;5007890;28;20312;-75
2021/01/16 09:33:51;;;;;;;4.73;4.33;;;-0.80;99.90;;;;;;5008133;28;20235;-75
2021/01/16 09:36:41;;;;;;;5.07;4.57;;;-0.80;99.90;;;;;;5007862;28;20212;-75
2021/01/16 09:39:15;;;;;;;5.07;4.37;;;-0.80;99.90;;;;;;5008003;28;20204;-76
2021/01/16 09:41:41;;;;;;;5.03;4.50;;;-0.80;99.90;;;;;;5008006;28;20288;-75
2021/01/16 09:44:08;;;;;;;4.57;4.17;;;-0.80;99.90;;;;;;5007569;28;20946;-76
2021/01/16 09:46:36;;;;;;;4.67;4.27;;;-0.80;99.90;;;;;;5007762;28;20644;-75
2021/01/16 09:49:03;;;;;;;4.40;4.00;;;-0.80;99.90;;;;;;5007986;28;20206;-76
2021/01/16 09:51:31;;;;;;;6.40;4.53;;;-0.70;99.90;;;;;;5007983;28;20669;-76
2021/01/16 09:54:12;;;;;;;6.67;4.70;;;-0.70;99.90;;;;;;5008159;28;20296;-75
2021/01/16 09:56:49;;;;;;;4.90;4.40;;;-0.70;99.90;;;;;;5007848;28;20206;-75
2021/01/16 09:59:22;;;;;;;5.33;4.83;;;-0.70;99.90;;;;;;5007931;28;20555;-76
2021/01/16 10:02:08;;;;;;;5.73;5.13;;;-0.70;99.90;;;;;;5007874;28;20293;-75
2021/01/16 10:04:39;;;;;;;8.23;6.47;;;-0.70;99.90;;;;;;5007534;28;20664;-76
2021/01/16 10:07:10;;;;;;;5.43;4.93;;;-0.70;99.90;;;;;;5011683;28;20240;-75
2021/01/16 10:09:44;;;;;;;4.53;4.13;;;-0.70;99.90;;;;;;5011354;28;20209;-75
2021/01/16 10:12:40;;;;;;;6.70;5.30;;;-0.70;99.90;;;;;;5011152;28;20227;-76
2021/01/16 10:15:09;;;;;;;5.03;4.43;;;-0.60;99.90;;;;;;5011350;28;20229;-75
2021/01/16 10:17:36;;;;;;;5.73;4.67;;;-0.60;99.90;;;;;;5011399;28;20211;-75
2021/01/16 10:20:06;;;;;;;5.33;4.80;;;-0.60;99.90;;;;;;5011374;28;20602;-75
2021/01/16 10:22:34;;;;;;;4.80;4.40;;;-0.60;99.90;;;;;;5011367;28;20338;-75
2021/01/16 10:25:08;;;;;;;5.43;4.63;;;-0.60;99.90;;;;;;5011280;28;20203;-75
2021/01/16 10:27:43;;;;;;;7.70;5.43;;;-0.60;99.90;;;;;;5008447;28;20206;-75
2021/01/16 10:30:17;;;;;;;7.67;6.87;;;-0.50;99.90;;;;;;5000215;28;20207;-75
2021/01/16 10:32:44;;;;;;;6.43;5.83;;;-0.50;99.90;;;;;;4999211;28;20238;-75
2021/01/16 10:35:19;;;;;;;6.83;4.30;;;-0.40;99.90;;;;;;5003949;28;20295;-75
2021/01/16 10:37:46;;;;;;;4.90;4.50;;;-0.40;99.90;;;;;;4991114;28;20210;-76
2021/01/16 10:40:14;;;;;;;4.83;4.43;;;-0.30;99.90;;;;;;4991739;28;20234;-76
2021/01/16 10:42:46;;;;;;;5.63;3.90;;;-0.30;99.90;;;;;;4990965;28;20217;-76
2021/01/16 10:45:14;;;;;;;4.17;3.73;;;-0.30;99.90;;;;;;5010151;28;20747;-78
2021/01/16 10:47:42;;;;;;;4.33;4.03;;;-0.30;99.90;;;;;;5011289;28;20254;-75
2021/01/16 10:50:12;;;;;;;4.90;4.20;;;-0.30;99.90;;;;;;5011009;28;20214;-76
2021/01/16 10:52:39;;;;;;;4.17;3.87;;;-0.30;99.90;;;;;;5010154;28;20903;-75
2021/01/16 10:55:08;;;;;;;4.10;3.70;;;-0.30;99.90;;;;;;5011038;28;20209;-76
2021/01/16 10:57:47;;;;;;;4.10;3.77;;;-0.40;99.90;;;;;;5010895;28;20300;-76
2021/01/16 11:00:16;;;;;;;4.53;4.13;;;-0.40;99.90;;;;;;5010517;28;20220;-75
2021/01/16 11:02:43;;;;;;;4.10;3.70;;;-0.40;99.90;;;;;;5010549;28;20296;-75
2021/01/16 11:05:25;;;;;;;4.60;4.20;;;-0.40;99.90;;;;;;5010528;28;20302;-76
2021/01/16 11:07:54;;;;;;;4.20;3.80;;;-0.40;99.90;;;;;;5010931;28;20283;-75
2021/01/16 11:10:34;;;;;;;5.00;4.50;;;-0.40;99.90;;;;;;5010499;28;20219;-76
2021/01/16 11:13:22;;;;;;;4.23;3.83;;;-0.30;99.90;;;;;;5009994;28;20218;-75
2021/01/16 11:15:53;;;;;;;4.27;3.87;;;-0.30;99.90;;;;;;5010460;28;20247;-76
2021/01/16 11:18:31;;;;;;;4.40;4.00;;;-0.20;99.90;;;;;;5009567;28;20231;-75
2021/01/16 11:21:08;;;;;;;4.30;4.00;;;-0.20;99.90;;;;;;5009934;28;20291;-75
2021/01/16 11:23:58;;;;;;;4.53;4.20;;;-0.20;99.90;;;;;;5009870;28;20302;-76
2021/01/16 11:26:26;;;;;;;4.03;3.70;;;-0.20;99.90;;;;;;5009615;28;20282;-76
2021/01/16 11:28:54;;;;;;;4.33;3.97;;;-0.20;99.90;;;;;;5010036;28;20215;-76
2021/01/16 11:31:29;;;;;;;4.33;4.03;;;-0.10;99.90;;;;;;5009392;28;20351;-76
2021/01/16 11:34:23;;;;;;;4.37;3.80;;;-0.10;99.90;;;;;;5009163;28;20707;-76
2021/01/16 11:36:57;;;;;;;5.67;3.87;;;-0.20;99.90;;;;;;4974508;28;20669;-76
2021/01/16 11:39:43;;;;;;;4.73;4.07;;;-0.20;99.90;;;;;;5009745;28;20201;-76
2021/01/16 11:42:10;;;;;;;4.23;3.80;;;-0.20;99.90;;;;;;5009772;28;20214;-76
2021/01/16 11:44:58;;;;;;;4.03;3.67;;;-0.20;99.90;;;;;;5009187;28;20351;-76
2021/01/16 11:47:26;;;;;;;6.23;4.20;;;-0.20;99.90;;;;;;5009273;28;20215;-76
2021/01/16 11:49:53;;;;;;;4.40;4.00;;;-0.20;99.90;;;;;;5009336;28;20581;-76
2021/01/16 11:52:19;;;;;;;4.80;3.80;;;-0.10;99.90;;;;;;5009321;28;20702;-76
2021/01/16 11:54:48;;;;;;;3.93;3.63;;;-0.10;99.90;;;;;;5009533;28;20211;-76
2021/01/16 11:57:18;;;;;;;3.87;3.47;;;-0.20;99.90;;;;;;5009095;28;20312;-76
2021/01/16 11:59:46;;;;;;;5.80;4.07;;;-0.30;99.90;;;;;;5009001;28;20200;-76
2021/01/16 12:02:14;;;;;;;4.80;4.40;;;-0.30;99.90;;;;;;5009229;28;20253;-77
2021/01/16 12:04:45;;;;;;;6.73;5.80;;;-0.30;99.90;;;;;;5008896;28;20294;-76
2021/01/16 12:07:17;;;;;;;4.90;4.07;;;-0.20;99.90;;;;;;4998094;28;20657;-76
2021/01/16 12:09:44;;;;;;;6.47;5.83;;;-0.20;99.90;;;;;;5000527;28;20643;-78
2021/01/16 12:12:11;;;;;;;7.37;6.70;;;-0.10;99.90;;;;;;4997762;28;20315;-76
2021/01/16 12:14:40;;;;;;;4.47;4.07;;;-0.10;99.90;;;;;;5000520;28;20646;-77
2021/01/16 12:17:08;;;;;;;3.93;3.53;;;0.00;99.90;;;;;;5000397;28;20299;-76
2021/01/16 12:19:36;;;;;;;4.20;3.90;;;0.00;99.90;;;;;;4997051;28;20300;-76
2021/01/16 12:22:05;;;;;;;4.73;3.87;;;0.00;99.90;;;;;;4989443;28;20328;-76
2021/01/16 12:24:31;;;;;;;4.37;3.93;;;0.00;99.90;;;;;;4989364;28;20303;-76
2021/01/16 12:27:00;;;;;;;4.27;3.87;;;0.10;99.90;;;;;;4989087;28;20205;-76
2021/01/16 12:29:40;;;;;;;4.03;3.73;;;0.10;99.90;;;;;;4988204;28;20213;-76
2021/01/16 12:32:09;;;;;;;4.33;3.70;;;0.10;99.90;;;;;;4989188;28;20307;-76
2021/01/16 12:34:46;;;;;;;4.07;3.67;;;0.10;99.90;;;;;;4988918;28;20291;-76
2021/01/16 12:37:13;;;;;;;3.70;3.40;;;0.20;99.90;;;;;;4988804;28;20240;-76
2021/01/16 12:39:43;;;;;;;3.77;3.47;;;0.20;99.90;;;;;;4990379;28;20732;-76
2021/01/16 12:42:11;;;;;;;4.20;3.80;;;0.20;99.90;;;;;;5005925;28;20215;-76
2021/01/16 12:44:37;;;;;;;4.97;3.33;;;0.30;99.90;;;;;;5007983;28;20244;-76
2021/01/16 12:47:03;;;;;;;4.37;3.63;;;0.40;99.90;;;;;;5007969;28;20216;-76
2021/01/16 12:49:30;;;;;;;3.83;3.43;;;0.40;99.90;;;;;;5008032;28;20318;-76
2021/01/16 12:51:58;;;;;;;3.73;3.30;;;0.30;99.90;;;;;;5007736;28;20318;-76
2021/01/16 12:54:24;;;;;;;5.20;3.30;;;0.20;99.90;;;;;;5008542;28;20258;-76
2021/01/16 12:56:51;;;;;;;4.73;3.43;;;0.20;99.90;;;;;;5008227;28;20662;-75
2021/01/16 12:59:18;;;;;;;3.50;3.20;;;0.30;99.90;;;;;;5008413;28;20322;-76
2021/01/16 13:01:50;;;;;;;3.20;2.90;;;0.40;99.90;;;;;;5007494;28;20208;-76